sensor_id;sensor_type;location;lat;lon;timestamp;pressure;altitude;pressure_sealevel;temperature;humidity
6433;BME280;3249;42.690;23.260;2024-02-15T00:02:30;94625.75;;;3.60;88.40
6433;BME280;3249;42.690;23.260;2024-02-15T00:04:59;94622.41;;;3.68;88.54
6433;BME280;3249;42.690;23.260;2024-02-15T00:07:29;94614.50;;;3.47;87.82
6433;BME280;3249;42.690;23.260;2024-02-15T00:10:04;94629.28;;;3.59;88.01
6433;BME280;3249;42.690;23.260;2024-02-15T00:12:35;94595.59;;;3.41;88.64
6433;BME280;3249;42.690;23.260;2024-02-15T00:15:05;94624.81;;;3.53;88.80
6433;BME280;3249;42.690;23.260;2024-02-15T00:17:35;94622.47;;;3.52;88.80
6433;BME280;3249;42.690;23.260;2024-02-15T00:20:05;94611.03;;;3.48;88.75
6433;BME280;3249;42.690;23.260;2024-02-15T00:22:36;94628.66;;;3.49;88.91
6433;BME280;3249;42.690;23.260;2024-02-15T00:25:09;94627.84;;;3.57;89.01
6433;BME280;3249;42.690;23.260;2024-02-15T00:27:39;94628.47;;;3.59;88.24
6433;BME280;3249;42.690;23.260;2024-02-15T00:30:10;94647.91;;;3.52;87.44
6433;BME280;3249;42.690;23.260;2024-02-15T00:32:39;94642.16;;;3.58;88.33
6433;BME280;3249;42.690;23.260;2024-02-15T00:35:10;94638.34;;;3.54;87.80
6433;BME280;3249;42.690;23.260;2024-02-15T00:37:41;94635.00;;;3.53;87.32
6433;BME280;3249;42.690;23.260;2024-02-15T00:40:13;94626.75;;;3.51;87.41
6433;BME280;3249;42.690;23.260;2024-02-15T00:42:42;94641.84;;;3.61;87.42
6433;BME280;3249;42.690;23.260;2024-02-15T00:45:11;94638.44;;;3.68;87.39
6433;BME280;3249;42.690;23.260;2024-02-15T00:47:41;94639.38;;;3.75;86.07
6433;BME280;3249;42.690;23.260;2024-02-15T00:50:10;94649.97;;;3.87;85.07
6433;BME280;3249;42.690;23.260;2024-02-15T00:52:39;94645.72;;;3.79;84.21
6433;BME280;3249;42.690;23.260;2024-02-15T00:55:12;94648.03;;;3.66;85.19
6433;BME280;3249;42.690;23.260;2024-02-15T00:57:42;94646.59;;;3.64;85.96
6433;BME280;3249;42.690;23.260;2024-02-15T01:00:13;94637.69;;;3.68;86.37
6433;BME280;3249;42.690;23.260;2024-02-15T01:02:42;94639.94;;;3.55;85.92
6433;BME280;3249;42.690;23.260;2024-02-15T01:05:13;94636.25;;;3.57;86.75
6433;BME280;3249;42.690;23.260;2024-02-15T01:07:43;94640.25;;;3.60;85.54
6433;BME280;3249;42.690;23.260;2024-02-15T01:10:17;94639.75;;;3.64;86.22
6433;BME280;3249;42.690;23.260;2024-02-15T01:12:46;94639.72;;;3.72;85.73
6433;BME280;3249;42.690;23.260;2024-02-15T01:15:16;94633.84;;;3.72;85.28
6433;BME280;3249;42.690;23.260;2024-02-15T01:17:46;94642.09;;;3.74;84.97
6433;BME280;3249;42.690;23.260;2024-02-15T01:20:15;94634.91;;;3.77;84.58
6433;BME280;3249;42.690;23.260;2024-02-15T01:22:44;94610.34;;;3.54;84.44
6433;BME280;3249;42.690;23.260;2024-02-15T01:25:16;94633.34;;;3.68;84.91
6433;BME280;3249;42.690;23.260;2024-02-15T01:27:46;94639.53;;;3.74;85.69
6433;BME280;3249;42.690;23.260;2024-02-15T01:30:16;94637.31;;;3.71;85.09
6433;BME280;3249;42.690;23.260;2024-02-15T01:32:45;94635.16;;;3.60;85.23
6433;BME280;3249;42.690;23.260;2024-02-15T01:35:14;94633.09;;;3.55;85.44
6433;BME280;3249;42.690;23.260;2024-02-15T01:37:44;94638.03;;;3.57;86.08
6433;BME280;3249;42.690;23.260;2024-02-15T01:40:17;94632.44;;;3.61;86.60
6433;BME280;3249;42.690;23.260;2024-02-15T01:42:46;94628.16;;;3.54;86.39
6433;BME280;3249;42.690;23.260;2024-02-15T01:45:15;94628.81;;;3.56;86.49
6433;BME280;3249;42.690;23.260;2024-02-15T01:47:45;94624.41;;;3.42;86.09
6433;BME280;3249;42.690;23.260;2024-02-15T01:50:16;94636.63;;;3.46;86.69
6433;BME280;3249;42.690;23.260;2024-02-15T01:52:47;94640.59;;;3.49;87.12
6433;BME280;3249;42.690;23.260;2024-02-15T01:55:19;94645.97;;;3.54;86.72
6433;BME280;3249;42.690;23.260;2024-02-15T01:57:54;94643.44;;;3.54;86.58
6433;BME280;3249;42.690;23.260;2024-02-15T02:00:24;94652.19;;;3.51;86.29
6433;BME280;3249;42.690;23.260;2024-02-15T02:02:56;94647.13;;;3.51;87.34
6433;BME280;3249;42.690;23.260;2024-02-15T02:05:30;94645.03;;;3.47;87.72
6433;BME280;3249;42.690;23.260;2024-02-15T02:08:00;94623.31;;;3.36;88.15
6433;BME280;3249;42.690;23.260;2024-02-15T02:10:40;94642.34;;;3.48;88.18
6433;BME280;3249;42.690;23.260;2024-02-15T02:13:10;94647.72;;;3.53;88.90
6433;BME280;3249;42.690;23.260;2024-02-15T02:15:39;94644.59;;;3.43;89.59
6433;BME280;3249;42.690;23.260;2024-02-15T02:18:08;94651.91;;;3.46;89.89
6433;BME280;3249;42.690;23.260;2024-02-15T02:20:38;94627.75;;;3.42;90.29
6433;BME280;3249;42.690;23.260;2024-02-15T02:23:13;94625.94;;;3.51;89.08
6433;BME280;3249;42.690;23.260;2024-02-15T02:25:47;94648.19;;;3.65;88.41
6433;BME280;3249;42.690;23.260;2024-02-15T02:28:17;94650.47;;;3.52;88.36
6433;BME280;3249;42.690;23.260;2024-02-15T02:30:47;94648.84;;;3.51;88.90
6433;BME280;3249;42.690;23.260;2024-02-15T02:33:17;94652.03;;;3.53;88.72
6433;BME280;3249;42.690;23.260;2024-02-15T02:35:48;94655.03;;;3.56;89.22
6433;BME280;3249;42.690;23.260;2024-02-15T02:38:18;94642.47;;;3.55;89.26
6433;BME280;3249;42.690;23.260;2024-02-15T02:40:50;94656.91;;;3.70;88.64
6433;BME280;3249;42.690;23.260;2024-02-15T02:43:20;94645.00;;;3.63;87.92
6433;BME280;3249;42.690;23.260;2024-02-15T02:45:49;94658.69;;;3.62;87.71
6433;BME280;3249;42.690;23.260;2024-02-15T02:48:18;94655.19;;;3.55;86.87
6433;BME280;3249;42.690;23.260;2024-02-15T02:50:47;94662.50;;;3.58;87.25
6433;BME280;3249;42.690;23.260;2024-02-15T02:53:17;94657.13;;;3.53;88.53
6433;BME280;3249;42.690;23.260;2024-02-15T02:55:49;94663.34;;;3.50;88.36
6433;BME280;3249;42.690;23.260;2024-02-15T02:58:19;94664.63;;;3.46;89.40
6433;BME280;3249;42.690;23.260;2024-02-15T03:00:49;94655.88;;;3.49;89.95
6433;BME280;3249;42.690;23.260;2024-02-15T03:03:18;94654.28;;;3.48;90.21
6433;BME280;3249;42.690;23.260;2024-02-15T03:05:48;94658.72;;;3.46;90.45
6433;BME280;3249;42.690;23.260;2024-02-15T03:08:20;94650.53;;;3.28;90.96
6433;BME280;3249;42.690;23.260;2024-02-15T03:10:52;94662.56;;;3.42;92.27
6433;BME280;3249;42.690;23.260;2024-02-15T03:13:23;94660.34;;;3.39;93.15
6433;BME280;3249;42.690;23.260;2024-02-15T03:15:52;94665.44;;;3.39;93.06
6433;BME280;3249;42.690;23.260;2024-02-15T03:18:21;94665.44;;;3.31;93.49
6433;BME280;3249;42.690;23.260;2024-02-15T03:20:50;94667.84;;;3.32;94.05
6433;BME280;3249;42.690;23.260;2024-02-15T03:23:19;94664.66;;;3.30;94.16
6433;BME280;3249;42.690;23.260;2024-02-15T03:25:49;94665.78;;;3.36;93.05
6433;BME280;3249;42.690;23.260;2024-02-15T03:28:22;94665.97;;;3.18;92.72
6433;BME280;3249;42.690;23.260;2024-02-15T03:30:52;94670.72;;;3.21;92.13
6433;BME280;3249;42.690;23.260;2024-02-15T03:33:22;94668.66;;;3.17;92.17
6433;BME280;3249;42.690;23.260;2024-02-15T03:35:54;94668.00;;;3.23;91.20
6433;BME280;3249;42.690;23.260;2024-02-15T03:38:27;94674.69;;;3.24;91.57
6433;BME280;3249;42.690;23.260;2024-02-15T03:40:57;94668.66;;;3.17;92.99
6433;BME280;3249;42.690;23.260;2024-02-15T03:43:30;94668.66;;;3.17;94.23
6433;BME280;3249;42.690;23.260;2024-02-15T03:46:00;94676.94;;;3.11;93.23
6433;BME280;3249;42.690;23.260;2024-02-15T03:48:29;94678.84;;;3.09;93.44
6433;BME280;3249;42.690;23.260;2024-02-15T03:50:59;94674.72;;;3.00;93.57
6433;BME280;3249;42.690;23.260;2024-02-15T03:53:29;94670.44;;;3.00;94.34
6433;BME280;3249;42.690;23.260;2024-02-15T03:55:59;94650.25;;;2.83;95.03
6433;BME280;3249;42.690;23.260;2024-02-15T03:58:31;94674.91;;;2.90;97.18
6433;BME280;3249;42.690;23.260;2024-02-15T04:01:03;94675.03;;;3.05;96.44
6433;BME280;3249;42.690;23.260;2024-02-15T04:03:36;94681.22;;;3.18;95.67
6433;BME280;3249;42.690;23.260;2024-02-15T04:06:06;94678.50;;;3.04;93.54
6433;BME280;3249;42.690;23.260;2024-02-15T04:08:35;94682.34;;;3.00;93.88
6433;BME280;3249;42.690;23.260;2024-02-15T04:11:05;94681.25;;;3.02;93.68
6433;BME280;3249;42.690;23.260;2024-02-15T04:13:38;94678.22;;;2.99;93.98
6433;BME280;3249;42.690;23.260;2024-02-15T04:16:08;94680.75;;;2.91;94.21
6433;BME280;3249;42.690;23.260;2024-02-15T04:18:37;94654.25;;;2.69;94.18
6433;BME280;3249;42.690;23.260;2024-02-15T04:21:08;94683.63;;;2.80;94.29
6433;BME280;3249;42.690;23.260;2024-02-15T04:23:37;94681.06;;;2.80;94.14
6433;BME280;3249;42.690;23.260;2024-02-15T04:26:07;94679.66;;;2.77;94.02
6433;BME280;3249;42.690;23.260;2024-02-15T04:28:41;94679.19;;;2.74;94.71
6433;BME280;3249;42.690;23.260;2024-02-15T04:31:13;94688.22;;;2.68;95.46
6433;BME280;3249;42.690;23.260;2024-02-15T04:33:42;94682.53;;;2.58;96.81
6433;BME280;3249;42.690;23.260;2024-02-15T04:36:14;94676.31;;;2.53;97.35
6433;BME280;3249;42.690;23.260;2024-02-15T04:38:49;94691.41;;;2.62;98.21
6433;BME280;3249;42.690;23.260;2024-02-15T04:41:19;94685.84;;;2.59;97.00
6433;BME280;3249;42.690;23.260;2024-02-15T04:43:52;94691.44;;;2.70;97.14
6433;BME280;3249;42.690;23.260;2024-02-15T04:46:22;94692.19;;;2.63;97.31
6433;BME280;3249;42.690;23.260;2024-02-15T04:49:07;94686.50;;;2.61;96.67
6433;BME280;3249;42.690;23.260;2024-02-15T04:51:36;94696.94;;;2.50;97.29
6433;BME280;3249;42.690;23.260;2024-02-15T04:54:06;94695.03;;;2.52;97.86
6433;BME280;3249;42.690;23.260;2024-02-15T04:56:39;94700.91;;;2.52;98.10
6433;BME280;3249;42.690;23.260;2024-02-15T04:59:12;94684.69;;;2.37;99.16
6433;BME280;3249;42.690;23.260;2024-02-15T05:01:44;94698.06;;;2.39;100.00
6433;BME280;3249;42.690;23.260;2024-02-15T05:04:15;94688.63;;;2.24;100.00
6433;BME280;3249;42.690;23.260;2024-02-15T05:06:44;94668.28;;;2.08;100.00
6433;BME280;3249;42.690;23.260;2024-02-15T05:09:15;94710.91;;;2.46;100.00
6433;BME280;3249;42.690;23.260;2024-02-15T05:11:44;94715.19;;;2.45;100.00
6433;BME280;3249;42.690;23.260;2024-02-15T05:14:17;94724.59;;;2.53;99.61
6433;BME280;3249;42.690;23.260;2024-02-15T05:16:50;94699.94;;;2.37;98.99
6433;BME280;3249;42.690;23.260;2024-02-15T05:19:20;94692.94;;;2.23;100.00
6433;BME280;3249;42.690;23.260;2024-02-15T05:21:51;94702.47;;;2.37;99.67
6433;BME280;3249;42.690;23.260;2024-02-15T05:24:21;94709.94;;;2.31;100.00
6433;BME280;3249;42.690;23.260;2024-02-15T05:26:51;94717.25;;;2.34;100.00
6433;BME280;3249;42.690;23.260;2024-02-15T05:29:25;94725.03;;;2.40;100.00
6433;BME280;3249;42.690;23.260;2024-02-15T05:32:05;94715.97;;;2.38;99.86
6433;BME280;3249;42.690;23.260;2024-02-15T05:34:35;94719.16;;;2.40;99.74
6433;BME280;3249;42.690;23.260;2024-02-15T05:37:06;94734.38;;;2.40;99.90
6433;BME280;3249;42.690;23.260;2024-02-15T05:39:37;94731.22;;;2.38;100.00
6433;BME280;3249;42.690;23.260;2024-02-15T05:42:07;94739.97;;;2.43;99.28
6433;BME280;3249;42.690;23.260;2024-02-15T05:44:39;94737.44;;;2.51;99.54
6433;BME280;3249;42.690;23.260;2024-02-15T05:47:09;94739.19;;;2.51;99.15
6433;BME280;3249;42.690;23.260;2024-02-15T05:49:38;94737.88;;;2.39;98.48
6433;BME280;3249;42.690;23.260;2024-02-15T05:52:07;94741.84;;;2.41;99.41
6433;BME280;3249;42.690;23.260;2024-02-15T05:54:37;94742.16;;;2.38;100.00
6433;BME280;3249;42.690;23.260;2024-02-15T05:57:07;94748.84;;;2.39;100.00
6433;BME280;3249;42.690;23.260;2024-02-15T05:59:40;94747.09;;;2.40;100.00
6433;BME280;3249;42.690;23.260;2024-02-15T06:02:10;94748.19;;;2.29;100.00
6433;BME280;3249;42.690;23.260;2024-02-15T06:04:41;94745.03;;;2.35;100.00
6433;BME280;3249;42.690;23.260;2024-02-15T06:07:10;94749.28;;;2.27;100.00
6433;BME280;3249;42.690;23.260;2024-02-15T06:09:40;94754.06;;;2.30;100.00
6433;BME280;3249;42.690;23.260;2024-02-15T06:12:10;94732.13;;;2.21;100.00
6433;BME280;3249;42.690;23.260;2024-02-15T06:14:42;94763.16;;;2.48;100.00
6433;BME280;3249;42.690;23.260;2024-02-15T06:17:12;94759.66;;;2.49;99.67
6433;BME280;3249;42.690;23.260;2024-02-15T06:19:42;94769.03;;;2.49;99.46
6433;BME280;3249;42.690;23.260;2024-02-15T06:22:11;94736.56;;;2.19;99.38
6433;BME280;3249;42.690;23.260;2024-02-15T06:24:41;94755.66;;;2.31;100.00
6433;BME280;3249;42.690;23.260;2024-02-15T06:27:10;94771.88;;;2.38;100.00
6433;BME280;3249;42.690;23.260;2024-02-15T06:29:44;94767.25;;;2.41;100.00
6433;BME280;3249;42.690;23.260;2024-02-15T06:32:26;94773.75;;;2.36;100.00
6433;BME280;3249;42.690;23.260;2024-02-15T06:35:08;94773.41;;;2.31;100.00
6433;BME280;3249;42.690;23.260;2024-02-15T06:37:50;94787.44;;;2.43;100.00
6433;BME280;3249;42.690;23.260;2024-02-15T06:40:31;94784.56;;;2.38;100.00
6433;BME280;3249;42.690;23.260;2024-02-15T06:43:02;94784.56;;;2.38;100.00
6433;BME280;3249;42.690;23.260;2024-02-15T06:45:35;94776.97;;;2.46;100.00
6433;BME280;3249;42.690;23.260;2024-02-15T06:48:07;94785.38;;;2.46;100.00
6433;BME280;3249;42.690;23.260;2024-02-15T06:50:37;94780.13;;;2.48;100.00
6433;BME280;3249;42.690;23.260;2024-02-15T06:53:08;94786.16;;;2.47;100.00
6433;BME280;3249;42.690;23.260;2024-02-15T06:55:41;94793.19;;;2.53;100.00
6433;BME280;3249;42.690;23.260;2024-02-15T06:58:13;94795.75;;;2.61;100.00
6433;BME280;3249;42.690;23.260;2024-02-15T07:00:44;94789.09;;;2.76;99.42
6433;BME280;3249;42.690;23.260;2024-02-15T07:03:14;94794.38;;;2.90;99.13
6433;BME280;3249;42.690;23.260;2024-02-15T07:05:44;94799.28;;;3.00;97.59
6433;BME280;3249;42.690;23.260;2024-02-15T07:08:13;94803.91;;;2.96;96.58
6433;BME280;3249;42.690;23.260;2024-02-15T07:10:47;94795.66;;;3.02;96.20
6433;BME280;3249;42.690;23.260;2024-02-15T07:13:17;94801.34;;;2.96;94.83
6433;BME280;3249;42.690;23.260;2024-02-15T07:15:50;94787.22;;;3.10;95.23
6433;BME280;3249;42.690;23.260;2024-02-15T07:18:19;94786.56;;;2.92;93.32
6433;BME280;3249;42.690;23.260;2024-02-15T07:20:53;94782.59;;;2.89;94.12
6433;BME280;3249;42.690;23.260;2024-02-15T07:23:23;94785.31;;;2.96;94.41
6433;BME280;3249;42.690;23.260;2024-02-15T07:25:53;94793.28;;;3.09;93.36
6433;BME280;3249;42.690;23.260;2024-02-15T07:28:23;94792.63;;;3.15;92.14
6433;BME280;3249;42.690;23.260;2024-02-15T07:30:55;94794.88;;;3.26;92.39
6433;BME280;3249;42.690;23.260;2024-02-15T07:33:29;94774.81;;;3.23;90.82
6433;BME280;3249;42.690;23.260;2024-02-15T07:35:58;94776.91;;;3.19;90.75
6433;BME280;3249;42.690;23.260;2024-02-15T07:38:31;94781.84;;;3.29;90.55
6433;BME280;3249;42.690;23.260;2024-02-15T07:41:01;94779.59;;;3.26;89.59
6433;BME280;3249;42.690;23.260;2024-02-15T07:43:31;94780.25;;;3.28;89.51
6433;BME280;3249;42.690;23.260;2024-02-15T07:46:04;94762.75;;;3.25;89.46
6433;BME280;3249;42.690;23.260;2024-02-15T07:48:33;94753.53;;;3.24;90.23
6433;BME280;3249;42.690;23.260;2024-02-15T07:51:05;94771.34;;;3.40;88.95
6433;BME280;3249;42.690;23.260;2024-02-15T07:53:35;94771.63;;;3.53;87.83
6433;BME280;3249;42.690;23.260;2024-02-15T07:56:06;94773.09;;;3.39;88.93
6433;BME280;3249;42.690;23.260;2024-02-15T07:58:38;94774.81;;;3.39;88.97
6433;BME280;3249;42.690;23.260;2024-02-15T08:01:16;94780.84;;;3.62;89.89
6433;BME280;3249;42.690;23.260;2024-02-15T08:03:49;94786.88;;;3.69;89.32
6433;BME280;3249;42.690;23.260;2024-02-15T08:06:20;94777.31;;;3.79;88.94
6433;BME280;3249;42.690;23.260;2024-02-15T08:08:51;94776.38;;;3.72;87.06
6433;BME280;3249;42.690;23.260;2024-02-15T08:11:20;94749.84;;;3.58;86.97
6433;BME280;3249;42.690;23.260;2024-02-15T08:13:52;94747.44;;;3.65;86.63
6433;BME280;3249;42.690;23.260;2024-02-15T08:16:28;94762.53;;;3.74;85.97
6433;BME280;3249;42.690;23.260;2024-02-15T08:18:59;94765.38;;;3.79;86.73
6433;BME280;3249;42.690;23.260;2024-02-15T08:21:32;94766.75;;;3.98;85.64
6433;BME280;3249;42.690;23.260;2024-02-15T08:24:04;94779.13;;;4.09;84.87
6433;BME280;3249;42.690;23.260;2024-02-15T08:26:36;94759.97;;;3.82;86.77
6433;BME280;3249;42.690;23.260;2024-02-15T08:29:07;94753.91;;;3.83;86.35
6433;BME280;3249;42.690;23.260;2024-02-15T08:31:41;94770.84;;;4.07;87.06
6433;BME280;3249;42.690;23.260;2024-02-15T08:34:10;94760.69;;;3.99;85.62
6433;BME280;3249;42.690;23.260;2024-02-15T08:36:40;94766.66;;;4.22;84.25
6433;BME280;3249;42.690;23.260;2024-02-15T08:39:09;94747.91;;;4.15;83.52
6433;BME280;3249;42.690;23.260;2024-02-15T08:41:42;94752.22;;;4.14;83.18
6433;BME280;3249;42.690;23.260;2024-02-15T08:44:12;94770.41;;;4.42;81.63
6433;BME280;3249;42.690;23.260;2024-02-15T08:46:44;94760.69;;;4.45;79.97
6433;BME280;3249;42.690;23.260;2024-02-15T08:49:14;94726.53;;;4.24;81.55
6433;BME280;3249;42.690;23.260;2024-02-15T08:51:43;94766.47;;;4.31;82.67
6433;BME280;3249;42.690;23.260;2024-02-15T08:54:12;94763.03;;;4.47;83.03
6433;BME280;3249;42.690;23.260;2024-02-15T08:56:42;94750.09;;;4.56;82.15
6433;BME280;3249;42.690;23.260;2024-02-15T08:59:12;94753.69;;;4.39;83.21
6433;BME280;3249;42.690;23.260;2024-02-15T09:01:46;94753.44;;;4.57;84.17
6433;BME280;3249;42.690;23.260;2024-02-15T09:04:15;94759.03;;;4.52;79.72
6433;BME280;3249;42.690;23.260;2024-02-15T09:06:45;94765.22;;;4.58;80.73
6433;BME280;3249;42.690;23.260;2024-02-15T09:09:14;94759.22;;;4.51;82.88
6433;BME280;3249;42.690;23.260;2024-02-15T09:11:44;94745.38;;;4.45;85.05
6433;BME280;3249;42.690;23.260;2024-02-15T09:14:13;94749.50;;;4.77;79.83
6433;BME280;3249;42.690;23.260;2024-02-15T09:16:42;94746.22;;;4.91;75.99
6433;BME280;3249;42.690;23.260;2024-02-15T09:19:14;94730.34;;;4.58;75.62
6433;BME280;3249;42.690;23.260;2024-02-15T09:21:45;94758.66;;;4.86;77.66
6433;BME280;3249;42.690;23.260;2024-02-15T09:24:14;94752.72;;;5.16;75.63
6433;BME280;3249;42.690;23.260;2024-02-15T09:26:44;94754.72;;;5.29;75.23
6433;BME280;3249;42.690;23.260;2024-02-15T09:29:13;94753.06;;;5.50;73.26
6433;BME280;3249;42.690;23.260;2024-02-15T09:31:43;94753.09;;;5.65;72.02
6433;BME280;3249;42.690;23.260;2024-02-15T09:34:14;94743.38;;;5.31;74.36
6433;BME280;3249;42.690;23.260;2024-02-15T09:36:44;94747.63;;;5.53;71.02
6433;BME280;3249;42.690;23.260;2024-02-15T09:39:14;94741.91;;;5.66;69.28
6433;BME280;3249;42.690;23.260;2024-02-15T09:41:44;94743.19;;;5.33;71.56
6433;BME280;3249;42.690;23.260;2024-02-15T09:44:17;94738.94;;;5.25;70.48
6433;BME280;3249;42.690;23.260;2024-02-15T09:46:54;94747.19;;;5.64;68.66
6433;BME280;3249;42.690;23.260;2024-02-15T09:49:35;94732.84;;;5.63;69.22
6433;BME280;3249;42.690;23.260;2024-02-15T09:52:06;94738.13;;;5.76;67.61
6433;BME280;3249;42.690;23.260;2024-02-15T09:54:39;94735.47;;;5.18;69.55
6433;BME280;3249;42.690;23.260;2024-02-15T09:57:11;94728.91;;;5.01;71.60
6433;BME280;3249;42.690;23.260;2024-02-15T09:59:40;94723.97;;;5.22;70.42
6433;BME280;3249;42.690;23.260;2024-02-15T10:02:11;94732.22;;;5.61;68.23
6433;BME280;3249;42.690;23.260;2024-02-15T10:04:43;94722.06;;;5.39;68.79
6433;BME280;3249;42.690;23.260;2024-02-15T10:07:14;94724.22;;;5.64;66.21
6433;BME280;3249;42.690;23.260;2024-02-15T10:09:44;94720.50;;;5.67;70.73
6433;BME280;3249;42.690;23.260;2024-02-15T10:12:14;94699.44;;;5.50;69.86
6433;BME280;3249;42.690;23.260;2024-02-15T10:14:48;94711.38;;;5.72;70.10
6433;BME280;3249;42.690;23.260;2024-02-15T10:17:21;94708.91;;;5.79;67.35
6433;BME280;3249;42.690;23.260;2024-02-15T10:20:09;94700.09;;;5.96;63.62
6433;BME280;3249;42.690;23.260;2024-02-15T10:22:38;94707.25;;;6.00;65.28
6433;BME280;3249;42.690;23.260;2024-02-15T10:25:12;94696.78;;;6.31;65.34
6433;BME280;3249;42.690;23.260;2024-02-15T10:27:41;94681.50;;;6.16;64.94
6433;BME280;3249;42.690;23.260;2024-02-15T10:30:18;94695.19;;;6.09;66.66
6433;BME280;3249;42.690;23.260;2024-02-15T10:32:47;94688.47;;;6.22;65.25
6433;BME280;3249;42.690;23.260;2024-02-15T10:35:24;94683.53;;;5.77;68.93
6433;BME280;3249;42.690;23.260;2024-02-15T10:38:04;94683.25;;;6.16;68.46
6433;BME280;3249;42.690;23.260;2024-02-15T10:40:37;94661.97;;;6.09;65.65
6433;BME280;3249;42.690;23.260;2024-02-15T10:43:07;94654.94;;;5.82;67.73
6433;BME280;3249;42.690;23.260;2024-02-15T10:45:39;94683.97;;;6.45;67.36
6433;BME280;3249;42.690;23.260;2024-02-15T10:48:09;94678.63;;;6.40;66.48
6433;BME280;3249;42.690;23.260;2024-02-15T10:50:45;94682.41;;;6.65;64.01
6433;BME280;3249;42.690;23.260;2024-02-15T10:53:21;94676.06;;;6.61;61.18
6433;BME280;3249;42.690;23.260;2024-02-15T10:55:59;94673.09;;;6.58;60.38
6433;BME280;3249;42.690;23.260;2024-02-15T10:58:33;94669.50;;;6.52;60.58
6433;BME280;3249;42.690;23.260;2024-02-15T11:01:06;94664.03;;;6.76;59.81
6433;BME280;3249;42.690;23.260;2024-02-15T11:03:46;94683.56;;;7.05;56.87
6433;BME280;3249;42.690;23.260;2024-02-15T11:06:26;94671.22;;;6.66;59.22
6433;BME280;3249;42.690;23.260;2024-02-15T11:08:56;94670.91;;;6.55;59.65
6433;BME280;3249;42.690;23.260;2024-02-15T11:11:27;94667.69;;;6.32;59.88
6433;BME280;3249;42.690;23.260;2024-02-15T11:14:24;94670.41;;;6.66;58.66
6433;BME280;3249;42.690;23.260;2024-02-15T11:16:54;94664.38;;;6.52;57.56
6433;BME280;3249;42.690;23.260;2024-02-15T11:19:43;94667.50;;;6.90;57.36
6433;BME280;3249;42.690;23.260;2024-02-15T11:22:16;94641.38;;;6.94;54.61
6433;BME280;3249;42.690;23.260;2024-02-15T11:24:47;94666.41;;;7.26;54.17
6433;BME280;3249;42.690;23.260;2024-02-15T11:27:24;94662.47;;;7.24;53.95
6433;BME280;3249;42.690;23.260;2024-02-15T11:29:55;94626.31;;;7.12;53.20
6433;BME280;3249;42.690;23.260;2024-02-15T11:32:40;94640.69;;;7.34;52.36
6433;BME280;3249;42.690;23.260;2024-02-15T11:35:14;94655.31;;;7.47;53.21
6433;BME280;3249;42.690;23.260;2024-02-15T11:37:56;94655.66;;;7.37;55.40
6433;BME280;3249;42.690;23.260;2024-02-15T11:41:03;94656.94;;;7.54;53.06
6433;BME280;3249;42.690;23.260;2024-02-15T11:43:47;94662.81;;;7.48;52.88
6433;BME280;3249;42.690;23.260;2024-02-15T11:46:26;94654.09;;;7.43;52.88
6433;BME280;3249;42.690;23.260;2024-02-15T11:49:00;94635.56;;;7.34;52.29
6433;BME280;3249;42.690;23.260;2024-02-15T11:51:31;94655.31;;;7.47;53.01
6433;BME280;3249;42.690;23.260;2024-02-15T11:54:06;94651.41;;;7.23;53.70
6433;BME280;3249;42.690;23.260;2024-02-15T11:56:55;94651.16;;;7.12;55.08
6433;BME280;3249;42.690;23.260;2024-02-15T11:59:39;94648.31;;;7.28;55.62
6433;BME280;3249;42.690;23.260;2024-02-15T12:02:19;94647.41;;;7.42;54.29
6433;BME280;3249;42.690;23.260;2024-02-15T12:05:03;94640.47;;;7.70;53.00
6433;BME280;3249;42.690;23.260;2024-02-15T12:07:55;94644.38;;;7.59;53.47
6433;BME280;3249;42.690;23.260;2024-02-15T12:10:39;94640.28;;;7.71;53.17
6433;BME280;3249;42.690;23.260;2024-02-15T12:17:06;94633.44;;;7.78;53.18
6433;BME280;3249;42.690;23.260;2024-02-15T12:19:49;94604.63;;;7.76;51.19
6433;BME280;3249;42.690;23.260;2024-02-15T12:22:24;94623.22;;;7.91;50.79
6433;BME280;3249;42.690;23.260;2024-02-15T12:24:58;94632.56;;;8.05;50.53
6433;BME280;3249;42.690;23.260;2024-02-15T12:27:32;94640.81;;;8.01;50.52
6433;BME280;3249;42.690;23.260;2024-02-15T12:30:02;94626.31;;;7.74;51.79
6433;BME280;3249;42.690;23.260;2024-02-15T12:32:33;94625.44;;;8.01;51.66
6433;BME280;3249;42.690;23.260;2024-02-15T12:35:14;94627.53;;;8.25;51.09
6433;BME280;3249;42.690;23.260;2024-02-15T12:38:01;94625.97;;;8.37;49.86
6433;BME280;3249;42.690;23.260;2024-02-15T12:40:32;94631.66;;;8.26;50.76
6433;BME280;3249;42.690;23.260;2024-02-15T12:43:08;94633.31;;;8.53;50.60
6433;BME280;3249;42.690;23.260;2024-02-15T12:45:40;94621.59;;;8.24;50.90
6433;BME280;3249;42.690;23.260;2024-02-15T12:48:09;94621.31;;;8.00;51.06
6433;BME280;3249;42.690;23.260;2024-02-15T12:50:41;94612.09;;;8.18;51.58
6433;BME280;3249;42.690;23.260;2024-02-15T12:53:12;94612.31;;;8.23;50.70
6433;BME280;3249;42.690;23.260;2024-02-15T12:55:42;94613.53;;;8.27;50.45
6433;BME280;3249;42.690;23.260;2024-02-15T12:58:17;94607.84;;;8.38;50.14
6433;BME280;3249;42.690;23.260;2024-02-15T13:00:46;94611.97;;;8.46;50.73
6433;BME280;3249;42.690;23.260;2024-02-15T13:03:26;94610.00;;;8.35;50.26
6433;BME280;3249;42.690;23.260;2024-02-15T13:06:09;94610.97;;;8.27;50.87
6433;BME280;3249;42.690;23.260;2024-02-15T13:08:38;94606.84;;;8.39;50.70
6433;BME280;3249;42.690;23.260;2024-02-15T13:11:07;94616.16;;;8.66;49.96
6433;BME280;3249;42.690;23.260;2024-02-15T13:13:41;94613.22;;;8.69;49.15
6433;BME280;3249;42.690;23.260;2024-02-15T13:16:11;94604.53;;;8.77;48.08
6433;BME280;3249;42.690;23.260;2024-02-15T13:18:40;94612.22;;;8.83;48.34
6433;BME280;3249;42.690;23.260;2024-02-15T13:21:09;94608.28;;;8.94;47.73
6433;BME280;3249;42.690;23.260;2024-02-15T13:23:39;94614.22;;;9.20;46.87
6433;BME280;3249;42.690;23.260;2024-02-15T13:26:08;94607.91;;;9.10;46.88
6433;BME280;3249;42.690;23.260;2024-02-15T13:28:37;94603.13;;;9.26;46.32
6433;BME280;3249;42.690;23.260;2024-02-15T13:31:10;94598.59;;;9.28;46.37
6433;BME280;3249;42.690;23.260;2024-02-15T13:33:39;94609.06;;;9.33;46.04
6433;BME280;3249;42.690;23.260;2024-02-15T13:36:09;94597.22;;;9.06;45.80
6433;BME280;3249;42.690;23.260;2024-02-15T13:38:39;94607.06;;;9.29;45.99
6433;BME280;3249;42.690;23.260;2024-02-15T13:41:09;94605.47;;;9.41;45.53
6433;BME280;3249;42.690;23.260;2024-02-15T13:43:38;94597.19;;;9.39;45.53
6433;BME280;3249;42.690;23.260;2024-02-15T13:46:10;94606.06;;;9.49;45.01
6433;BME280;3249;42.690;23.260;2024-02-15T13:48:39;94596.13;;;9.59;44.92
6433;BME280;3249;42.690;23.260;2024-02-15T13:51:09;94599.19;;;9.24;45.55